Time;durP1;ratioP1;P1;durP2;ratioP2;P2;SDS_P1;SDS_P2;PMS_P1;PMS_P2;Temp;Humidity;BMP_temperature;BMP_pressure;BME280_temperature;BME280_humidity;BME280_pressure;Samples;Min_cycle;Max_cycle;Signal;HPM_P1;HPM_P2
2022/07/05 00:00:56;;;;;;;1.85;1.25;;;;;;;;;;4996978;28;20041;-72
2022/07/05 00:03:24;;;;;;;2.15;1.27;;;;;;;;;;4996419;28;20034;-72
2022/07/05 00:05:50;;;;;;;1.85;1.10;;;;;;;;;;4996479;28;20109;-72
2022/07/05 00:08:15;;;;;;;1.65;1.10;;;;;;;;;;4996397;28;20101;-72
2022/07/05 00:10:41;;;;;;;2.55;1.17;;;;;;;;;;4996774;28;20497;-72
2022/07/05 00:13:07;;;;;;;2.40;1.38;;;;;;;;;;4996779;28;20113;-72
2022/07/05 00:15:32;;;;;;;2.60;1.23;;;;;;;;;;4996356;28;20045;-71
2022/07/05 00:17:58;;;;;;;3.10;1.20;;;;;;;;;;4996532;28;20379;-72
2022/07/05 00:20:23;;;;;;;2.55;1.30;;;;;;;;;;4996360;28;20033;-72
2022/07/05 00:22:48;;;;;;;2.88;1.10;;;;;;;;;;4996535;28;20037;-73
2022/07/05 00:25:14;;;;;;;3.30;1.20;;;;;;;;;;4996434;28;20064;-73
2022/07/05 00:27:40;;;;;;;1.67;1.23;;;;;;;;;;4996156;28;20022;-72
2022/07/05 00:30:06;;;;;;;1.58;1.10;;;;;;;;;;4996044;28;20034;-73
2022/07/05 00:32:31;;;;;;;1.50;1.10;;;;;;;;;;4995951;28;20034;-73
2022/07/05 00:34:57;;;;;;;2.90;1.40;;;;;;;;;;4996116;28;20022;-72
2022/07/05 00:37:22;;;;;;;1.65;1.27;;;;;;;;;;4996325;28;20045;-75
2022/07/05 00:39:47;;;;;;;2.80;1.40;;;;;;;;;;4996377;28;20462;-72
2022/07/05 00:42:12;;;;;;;2.42;1.13;;;;;;;;;;4995968;28;20165;-72
2022/07/05 00:44:41;;;;;;;2.70;1.30;;;;;;;;;;4996184;28;20030;-73
2022/07/05 00:47:08;;;;;;;1.50;1.30;;;;;;;;;;4994313;28;20700;-73
2022/07/05 00:49:34;;;;;;;1.25;1.15;;;;;;;;;;4995979;28;20034;-74
2022/07/05 00:52:00;;;;;;;1.30;1.10;;;;;;;;;;4995505;28;20022;-72
2022/07/05 00:54:27;;;;;;;2.28;1.20;;;;;;;;;;4995568;28;20039;-73
2022/07/05 00:56:52;;;;;;;4.28;1.27;;;;;;;;;;4995596;28;20034;-72
2022/07/05 00:59:17;;;;;;;2.97;1.05;;;;;;;;;;4995595;28;20395;-73
2022/07/05 01:01:43;;;;;;;2.75;1.30;;;;;;;;;;4995785;28;20054;-74
2022/07/05 01:04:08;;;;;;;2.78;1.30;;;;;;;;;;4995401;28;20037;-73
2022/07/05 01:06:34;;;;;;;2.17;1.20;;;;;;;;;;4995305;28;20041;-72
2022/07/05 01:08:59;;;;;;;2.25;1.33;;;;;;;;;;4995312;28;20104;-72
2022/07/05 01:11:25;;;;;;;1.38;1.20;;;;;;;;;;4995432;28;20369;-73
2022/07/05 01:13:50;;;;;;;3.05;1.15;;;;;;;;;;4994097;28;20439;-73
2022/07/05 01:16:16;;;;;;;1.63;1.30;;;;;;;;;;4995760;28;20414;-71
2022/07/05 01:18:42;;;;;;;5.50;1.40;;;;;;;;;;4995045;28;20276;-71
2022/07/05 01:21:11;;;;;;;2.58;1.20;;;;;;;;;;4995186;28;20395;-71
2022/07/05 01:23:37;;;;;;;2.22;1.30;;;;;;;;;;4995049;28;20049;-72
2022/07/05 01:26:02;;;;;;;1.67;1.27;;;;;;;;;;4994971;28;20475;-71
2022/07/05 01:28:27;;;;;;;3.15;1.63;;;;;;;;;;4994896;28;20278;-72
2022/07/05 01:30:53;;;;;;;1.63;1.48;;;;;;;;;;4993650;28;20030;-71
2022/07/05 01:33:18;;;;;;;2.60;1.60;;;;;;;;;;4995002;28;20031;-71
2022/07/05 01:35:43;;;;;;;4.60;1.47;;;;;;;;;;4994460;28;20106;-72
2022/07/05 01:38:11;;;;;;;3.70;1.33;;;;;;;;;;4995275;28;20749;-71
2022/07/05 01:40:37;;;;;;;1.85;1.38;;;;;;;;;;4994934;28;20494;-73
2022/07/05 01:43:03;;;;;;;3.08;1.50;;;;;;;;;;4994829;28;20030;-73
2022/07/05 01:45:41;;;;;;;2.67;1.48;;;;;;;;;;4994620;28;20443;-72
2022/07/05 01:48:18;;;;;;;1.92;1.33;;;;;;;;;;4994744;28;20534;-73
2022/07/05 01:51:15;;;;;;;2.10;1.55;;;;;;;;;;4994760;28;20026;-70
2022/07/05 01:53:43;;;;;;;1.98;1.60;;;;;;;;;;4992693;28;20062;-72
2022/07/05 01:56:08;;;;;;;3.88;1.60;;;;;;;;;;4993274;28;20029;-71
2022/07/05 01:58:34;;;;;;;2.42;1.60;;;;;;;;;;4994406;28;20027;-71
2022/07/05 02:00:59;;;;;;;3.47;1.50;;;;;;;;;;4994429;28;20031;-71
2022/07/05 02:03:26;;;;;;;2.97;1.42;;;;;;;;;;4994209;28;20067;-71
2022/07/05 02:05:52;;;;;;;1.92;1.48;;;;;;;;;;4994248;28;20061;-72
2022/07/05 02:08:18;;;;;;;2.10;1.50;;;;;;;;;;5009295;28;20026;-71
2022/07/05 02:10:44;;;;;;;2.45;1.55;;;;;;;;;;4994312;28;20034;-72
2022/07/05 02:13:10;;;;;;;2.45;1.50;;;;;;;;;;4994247;28;20034;-72
2022/07/05 02:15:38;;;;;;;1.85;1.40;;;;;;;;;;4994044;28;20105;-71
2022/07/05 02:18:04;;;;;;;1.80;1.42;;;;;;;;;;4993924;28;20030;-70
2022/07/05 02:20:31;;;;;;;2.72;1.60;;;;;;;;;;4994278;28;20081;-72
2022/07/05 02:22:57;;;;;;;1.95;1.40;;;;;;;;;;5009066;28;20077;-72
2022/07/05 02:25:22;;;;;;;6.53;1.50;;;;;;;;;;4993916;28;20034;-72
2022/07/05 02:27:48;;;;;;;2.08;1.35;;;;;;;;;;4992868;28;20026;-71
2022/07/05 02:30:14;;;;;;;6.53;1.45;;;;;;;;;;4994403;28;20022;-72
2022/07/05 02:32:39;;;;;;;2.05;1.27;;;;;;;;;;4994332;28;20034;-71
2022/07/05 02:35:06;;;;;;;1.77;1.55;;;;;;;;;;4994898;28;20076;-72
2022/07/05 05:35:55;;;;;;;9.98;2.60;;;;;;;;;;4958904;29;20580;-78
2022/07/05 06:06:28;;;;;;;4.65;1.90;;;;;;;;;;4841498;29;20047;-79
2022/07/05 06:13:22;;;;;;;5.10;1.80;;;;;;;;;;4895326;29;20087;-77
2022/07/05 06:15:47;;;;;;;6.53;2.00;;;;;;;;;;4919205;29;20036;-78
2022/07/05 06:19:20;;;;;;;3.83;2.00;;;;;;;;;;5078245;22;20045;-78
2022/07/05 06:21:20;;;;;;;6.38;2.05;;;;;;;;;;5025457;28;20075;-77
2022/07/05 06:37:16;;;;;;;9.40;1.75;;;;;;;;;;4957327;28;20057;-78
2022/07/05 06:43:21;;;;;;;2.65;1.50;;;;;;;;;;5011341;28;20448;-79
2022/07/05 06:45:49;;;;;;;4.38;1.58;;;;;;;;;;5018525;28;20017;-79
2022/07/05 06:51:33;;;;;;;3.95;1.60;;;;;;;;;;5031214;28;20370;-77
2022/07/05 06:53:58;;;;;;;4.35;1.63;;;;;;;;;;5018421;28;20021;-78
2022/07/05 06:56:29;;;;;;;4.75;1.70;;;;;;;;;;5035968;28;20104;-79
2022/07/05 06:59:06;;;;;;;4.03;1.70;;;;;;;;;;5035385;28;20067;-77
2022/07/05 07:01:37;;;;;;;2.83;1.40;;;;;;;;;;5035632;28;20036;-80
2022/07/05 07:04:26;;;;;;;2.65;1.67;;;;;;;;;;5036102;28;20394;-78
2022/07/05 07:09:37;;;;;;;3.88;1.60;;;;;;;;;;5153009;22;20049;-78
2022/07/05 07:12:59;;;;;;;2.22;1.50;;;;;;;;;;5035712;28;20021;-78
2022/07/05 07:15:31;;;;;;;7.13;1.90;;;;;;;;;;5035834;28;20025;-78
2022/07/05 07:22:21;;;;;;;5.82;1.30;;;;;;;;;;4958243;28;20539;-79
2022/07/05 07:34:54;;;;;;;5.95;1.50;;;;;;;;;;4918884;29;20059;-79
2022/07/05 07:39:55;;;;;;;6.28;1.50;;;;;;;;;;5108478;22;20068;-79
2022/07/05 07:46:10;;;;;;;;;;;;;;;;;;;;;
2022/07/05 07:49:16;;;;;;;4.30;1.20;;;;;;;;;;5038798;28;20305;-78
2022/07/05 07:52:27;;;;;;;3.70;1.20;;;;;;;;;;5038905;28;20441;-78
2022/07/05 08:04:09;;;;;;;2.35;1.45;;;;;;;;;;4997534;28;20407;-77
2022/07/05 08:06:39;;;;;;;1.45;0.82;;;;;;;;;;4998061;28;20073;-77
2022/07/05 08:10:06;;;;;;;6.10;0.95;;;;;;;;;;4996525;28;20423;-78
2022/07/05 08:12:38;;;;;;;2.15;0.95;;;;;;;;;;4920434;29;20051;-77
2022/07/05 08:15:34;;;;;;;3.03;1.00;;;;;;;;;;4938822;29;20031;-78
2022/07/05 08:22:16;;;;;;;3.03;1.00;;;;;;;;;;4937984;29;20042;-77
2022/07/05 08:31:10;;;;;;;2.05;1.20;;;;;;;;;;4886070;22;20226;-76
2022/07/05 08:33:47;;;;;;;3.00;0.93;;;;;;;;;;5034640;28;20394;-77
2022/07/05 08:36:46;;;;;;;1.77;1.08;;;;;;;;;;5019120;28;20031;-78
2022/07/05 08:39:18;;;;;;;2.08;0.90;;;;;;;;;;5011727;28;20037;-78
2022/07/05 08:46:08;;;;;;;2.88;1.05;;;;;;;;;;5004002;28;20494;-77
2022/07/05 08:49:28;;;;;;;;;;;;;;;;;;;;;
2022/07/05 08:52:02;;;;;;;3.92;0.80;;;;;;;;;;5017342;28;20260;-77
2022/07/05 08:54:28;;;;;;;4.03;0.95;;;;;;;;;;5016346;28;20194;-78
2022/07/05 08:56:56;;;;;;;1.55;0.90;;;;;;;;;;5016488;28;20030;-77
2022/07/05 08:59:54;;;;;;;6.03;0.90;;;;;;;;;;5016750;28;20048;-75
2022/07/05 09:02:53;;;;;;;1.23;1.00;;;;;;;;;;4976126;28;20038;-78
2022/07/05 09:05:48;;;;;;;2.97;0.85;;;;;;;;;;4959893;28;20507;-78
2022/07/05 09:09:11;;;;;;;0.90;0.70;;;;;;;;;;4976842;28;20042;-77
2022/07/05 09:12:02;;;;;;;1.05;0.80;;;;;;;;;;4989343;28;20034;-76
2022/07/05 09:18:44;;;;;;;1.45;0.80;;;;;;;;;;4980900;28;20038;-78
2022/07/05 09:21:28;;;;;;;1.27;0.95;;;;;;;;;;5015526;28;20062;-78
2022/07/05 09:27:56;;;;;;;2.00;1.00;;;;;;;;;;4968775;22;20032;-79
2022/07/05 09:30:36;;;;;;;2.90;0.98;;;;;;;;;;5006230;28;20045;-77
2022/07/05 09:33:54;;;;;;;2.05;1.00;;;;;;;;;;5036524;28;20032;-78
2022/07/05 09:36:20;;;;;;;1.33;0.90;;;;;;;;;;5035322;28;20030;-78
2022/07/05 09:38:51;;;;;;;1.83;1.10;;;;;;;;;;5022559;28;20501;-78
2022/07/05 09:41:17;;;;;;;1.17;0.85;;;;;;;;;;5039555;28;20104;-77
2022/07/05 09:43:45;;;;;;;5.82;0.90;;;;;;;;;;5046050;28;20060;-79
2022/07/05 09:46:12;;;;;;;4.43;1.00;;;;;;;;;;5027030;28;20454;-78
2022/07/05 09:48:51;;;;;;;2.25;1.15;;;;;;;;;;5046694;28;20029;-80
2022/07/05 09:51:17;;;;;;;1.40;0.90;;;;;;;;;;5044743;28;20048;-77
2022/07/05 09:53:49;;;;;;;3.27;1.00;;;;;;;;;;5044234;28;20029;-78
2022/07/05 09:56:15;;;;;;;4.38;0.90;;;;;;;;;;5039161;28;20676;-78
2022/07/05 09:58:43;;;;;;;2.00;1.00;;;;;;;;;;5039039;28;20029;-80
2022/07/05 10:01:31;;;;;;;1.50;1.00;;;;;;;;;;5037410;28;20021;-80
2022/07/05 10:04:01;;;;;;;3.90;0.88;;;;;;;;;;5037878;28;20018;-77
2022/07/05 10:06:28;;;;;;;2.85;0.95;;;;;;;;;;5039726;28;20085;-78
2022/07/05 10:08:54;;;;;;;11.13;1.00;;;;;;;;;;5038197;28;20057;-80
2022/07/05 10:11:26;;;;;;;2.47;0.80;;;;;;;;;;5038607;28;20080;-79
2022/07/05 10:13:53;;;;;;;1.60;0.90;;;;;;;;;;5038963;28;20036;-80
2022/07/05 10:16:22;;;;;;;2.88;1.00;;;;;;;;;;5038239;28;20494;-76
2022/07/05 10:18:51;;;;;;;1.02;0.80;;;;;;;;;;5038389;28;20079;-77
2022/07/05 10:21:18;;;;;;;1.88;0.80;;;;;;;;;;5037980;28;20025;-78
2022/07/05 10:23:46;;;;;;;4.47;1.10;;;;;;;;;;5037371;28;20037;-82
2022/07/05 10:26:12;;;;;;;3.47;0.90;;;;;;;;;;5036264;28;20034;-77
2022/07/05 10:28:39;;;;;;;2.90;0.95;;;;;;;;;;5036296;28;20112;-80
2022/07/05 10:31:05;;;;;;;2.35;0.80;;;;;;;;;;5036221;28;20530;-82
2022/07/05 10:33:32;;;;;;;2.25;0.88;;;;;;;;;;5019003;28;20026;-78
2022/07/05 10:35:58;;;;;;;4.95;1.00;;;;;;;;;;5036412;28;20363;-79
2022/07/05 10:38:24;;;;;;;1.27;0.80;;;;;;;;;;5037449;28;20033;-78
2022/07/05 10:40:57;;;;;;;6.90;0.90;;;;;;;;;;5038059;28;20029;-79
2022/07/05 10:43:23;;;;;;;3.47;0.85;;;;;;;;;;5036612;28;20029;-81
2022/07/05 10:45:50;;;;;;;3.25;0.98;;;;;;;;;;5037931;28;20040;-81
2022/07/05 10:48:21;;;;;;;1.58;0.90;;;;;;;;;;5036459;28;20059;-78
2022/07/05 10:50:55;;;;;;;2.45;0.80;;;;;;;;;;5036851;28;20051;-78
2022/07/05 10:53:32;;;;;;;2.70;0.88;;;;;;;;;;5037329;28;20071;-79
2022/07/05 10:56:03;;;;;;;1.00;0.77;;;;;;;;;;5019258;28;20021;-77
2022/07/05 10:58:31;;;;;;;5.50;1.00;;;;;;;;;;5036466;28;20040;-78
2022/07/05 11:01:12;;;;;;;1.75;1.00;;;;;;;;;;5037048;28;20040;-76
2022/07/05 11:03:45;;;;;;;3.70;1.08;;;;;;;;;;5036693;28;20390;-78
2022/07/05 11:06:20;;;;;;;;;;;;;;;;;;5019941;28;20482;-79
2022/07/05 11:09:04;;;;;;;2.20;0.80;;;;;;;;;;5038505;28;19920;-78
2022/07/05 11:11:31;;;;;;;5.05;1.17;;;;;;;;;;5040559;28;20032;-76
2022/07/05 11:13:58;;;;;;;1.08;0.90;;;;;;;;;;5040357;28;20053;-79
2022/07/05 11:16:36;;;;;;;2.90;0.80;;;;;;;;;;5023267;28;20116;-78
2022/07/05 11:19:16;;;;;;;5.43;0.88;;;;;;;;;;5040220;28;20406;-79
2022/07/05 11:22:00;;;;;;;1.00;0.77;;;;;;;;;;5038613;28;20021;-78
2022/07/05 11:24:27;;;;;;;3.90;0.98;;;;;;;;;;5039788;28;20368;-78
2022/07/05 11:26:56;;;;;;;5.00;1.20;;;;;;;;;;5040811;28;20025;-80
2022/07/05 11:29:41;;;;;;;3.63;1.25;;;;;;;;;;5040450;28;20037;-77
2022/07/05 11:32:08;;;;;;;1.40;0.90;;;;;;;;;;5039525;28;20018;-79
2022/07/05 11:34:34;;;;;;;2.30;0.90;;;;;;;;;;5039585;28;20021;-79
2022/07/05 11:37:23;;;;;;;0.95;0.82;;;;;;;;;;5041171;28;20014;-78
2022/07/05 11:40:11;;;;;;;4.15;0.90;;;;;;;;;;5043047;28;20032;-79
2022/07/05 11:42:39;;;;;;;0.98;0.80;;;;;;;;;;5048363;28;20037;-77
2022/07/05 11:45:08;;;;;;;2.05;0.90;;;;;;;;;;5045034;28;20021;-78
2022/07/05 11:47:35;;;;;;;0.90;0.63;;;;;;;;;;5041321;28;20021;-77
2022/07/05 11:50:00;;;;;;;4.82;0.88;;;;;;;;;;5026926;28;20025;-78
2022/07/05 11:52:26;;;;;;;2.17;0.90;;;;;;;;;;5045729;28;20036;-79
2022/07/05 11:54:51;;;;;;;2.72;0.90;;;;;;;;;;5044606;28;20262;-79
2022/07/05 11:57:18;;;;;;;3.47;0.88;;;;;;;;;;5047660;28;20017;-78
2022/07/05 11:59:44;;;;;;;9.98;0.88;;;;;;;;;;5048905;28;20041;-79
2022/07/05 12:02:09;;;;;;;4.85;1.00;;;;;;;;;;5047002;28;20026;-78
2022/07/05 12:04:34;;;;;;;2.50;0.90;;;;;;;;;;5031300;28;20026;-78
2022/07/05 12:06:59;;;;;;;4.27;1.37;;;;;;;;;;5050818;28;20308;-79
2022/07/05 12:15:05;;;;;;;2.15;0.82;;;;;;;;;;5049310;28;20124;-78
2022/07/05 12:17:33;;;;;;;2.88;1.00;;;;;;;;;;5050917;28;20025;-79
2022/07/05 12:19:59;;;;;;;2.45;0.98;;;;;;;;;;5051195;28;20029;-78
2022/07/05 12:22:31;;;;;;;2.55;0.93;;;;;;;;;;5049320;28;20030;-78
2022/07/05 12:24:58;;;;;;;3.75;0.90;;;;;;;;;;5029138;28;20049;-78
2022/07/05 12:27:26;;;;;;;1.67;0.90;;;;;;;;;;5029062;28;20446;-77
2022/07/05 12:29:51;;;;;;;2.63;1.05;;;;;;;;;;5048387;28;20044;-80
2022/07/05 12:32:17;;;;;;;1.05;0.80;;;;;;;;;;5048821;28;20391;-78
2022/07/05 12:34:42;;;;;;;5.22;1.00;;;;;;;;;;5045604;28;20517;-78
2022/07/05 12:37:07;;;;;;;0.97;0.83;;;;;;;;;;5048619;28;20040;-78
2022/07/05 12:39:32;;;;;;;2.10;1.00;;;;;;;;;;5049127;28;20262;-78
2022/07/05 12:41:58;;;;;;;5.03;0.98;;;;;;;;;;5048316;28;20326;-78
2022/07/05 12:44:23;;;;;;;1.02;0.82;;;;;;;;;;5046805;28;20029;-78
2022/07/05 12:46:52;;;;;;;1.00;0.90;;;;;;;;;;5048959;28;20024;-78
2022/07/05 12:49:18;;;;;;;4.10;1.02;;;;;;;;;;5029784;28;20021;-78
2022/07/05 12:51:44;;;;;;;2.50;1.00;;;;;;;;;;5046672;28;20021;-80
2022/07/05 13:00:02;;;;;;;8.02;1.20;;;;;;;;;;5044299;28;20028;-78
2022/07/05 13:02:39;;;;;;;3.45;0.98;;;;;;;;;;5041591;28;20029;-78
2022/07/05 13:05:07;;;;;;;3.90;1.00;;;;;;;;;;5021352;28;20420;-77
2022/07/05 13:07:32;;;;;;;2.67;0.80;;;;;;;;;;5020929;28;20059;-79
2022/07/05 13:10:18;;;;;;;2.75;0.95;;;;;;;;;;5040155;28;20025;-78
2022/07/05 13:12:44;;;;;;;1.05;0.80;;;;;;;;;;5042529;28;20029;-78
2022/07/05 13:15:10;;;;;;;2.38;0.90;;;;;;;;;;5039285;28;20120;-80
2022/07/05 13:17:36;;;;;;;0.85;0.85;;;;;;;;;;5020246;28;20093;-78
2022/07/05 13:20:03;;;;;;;2.08;0.85;;;;;;;;;;5037781;28;20049;-79
2022/07/05 13:22:28;;;;;;;3.00;1.00;;;;;;;;;;5037966;28;20029;-77
2022/07/05 13:24:54;;;;;;;2.75;1.02;;;;;;;;;;5038198;28;20479;-79
2022/07/05 13:36:15;;;;;;;0.90;0.90;;;;;;;;;;4999088;28;20443;-79
2022/07/05 13:46:22;;;;;;;1.55;1.02;;;;;;;;;;4976821;28;20118;-78
2022/07/05 14:01:55;;;;;;;1.95;0.90;;;;;;;;;;4971902;28;20042;-78
2022/07/05 14:14:05;;;;;;;;;;;;;;;;;;;;;
2022/07/05 14:25:16;;;;;;;3.13;1.00;;;;;;;;;;5070120;22;20049;-79
2022/07/05 14:34:34;;;;;;;1.17;0.90;;;;;;;;;;4974802;28;20050;-80
2022/07/05 14:47:51;;;;;;;1.63;1.00;;;;;;;;;;5814571;22;20012;-78
2022/07/05 14:51:18;;;;;;;3.20;1.00;;;;;;;;;;4996287;28;20042;-79
2022/07/05 15:03:06;;;;;;;4.18;1.33;;;;;;;;;;5012257;28;20041;-80
2022/07/05 15:05:31;;;;;;;3.70;1.02;;;;;;;;;;4941649;29;20504;-78
2022/07/05 15:07:59;;;;;;;2.05;0.90;;;;;;;;;;4992708;28;20049;-79
2022/07/05 15:10:28;;;;;;;1.30;0.93;;;;;;;;;;5000172;28;20068;-78
2022/07/05 15:13:19;;;;;;;4.00;1.02;;;;;;;;;;5018088;28;20018;-79
2022/07/05 15:15:45;;;;;;;3.85;1.20;;;;;;;;;;4999787;28;20192;-80
2022/07/05 15:22:03;;;;;;;1.02;0.93;;;;;;;;;;4975850;28;20050;-78
2022/07/05 15:24:36;;;;;;;2.30;1.00;;;;;;;;;;4978108;28;20085;-78
2022/07/05 15:29:35;;;;;;;0.80;0.80;;;;;;;;;;4996790;28;20054;-80
2022/07/05 15:32:03;;;;;;;3.85;1.10;;;;;;;;;;5001674;28;20034;-78
2022/07/05 15:34:28;;;;;;;2.78;1.08;;;;;;;;;;5003095;28;20487;-78
2022/07/05 15:36:53;;;;;;;3.13;1.30;;;;;;;;;;5006777;28;20029;-78
2022/07/05 15:39:19;;;;;;;4.10;1.00;;;;;;;;;;5020843;28;20030;-79
2022/07/05 15:41:44;;;;;;;3.13;1.57;;;;;;;;;;5005916;28;20264;-78
2022/07/05 15:44:09;;;;;;;3.35;1.10;;;;;;;;;;5005326;28;20041;-79
2022/07/05 15:49:18;;;;;;;;;;;;;;;;;;5003152;28;20037;-78
2022/07/05 15:51:43;;;;;;;3.03;1.20;;;;;;;;;;4999408;28;19953;-78
2022/07/05 15:54:09;;;;;;;3.60;1.00;;;;;;;;;;5004336;28;20114;-78
2022/07/05 15:56:34;;;;;;;3.00;1.33;;;;;;;;;;5006853;28;20042;-78
2022/07/05 15:59:00;;;;;;;3.53;1.15;;;;;;;;;;5007756;28;20031;-78
2022/07/05 16:01:25;;;;;;;2.58;1.05;;;;;;;;;;5004695;28;20026;-77
2022/07/05 16:03:50;;;;;;;6.05;1.65;;;;;;;;;;5002652;28;20049;-77
2022/07/05 16:06:15;;;;;;;5.93;1.30;;;;;;;;;;5005982;28;20368;-77
2022/07/05 16:08:41;;;;;;;1.70;1.10;;;;;;;;;;5006300;28;20465;-77
2022/07/05 16:11:06;;;;;;;1.60;1.00;;;;;;;;;;5003974;28;20364;-78
2022/07/05 16:13:31;;;;;;;2.73;1.30;;;;;;;;;;5010248;28;20256;-78
2022/07/05 16:16:12;;;;;;;3.70;1.40;;;;;;;;;;5010068;28;20267;-78
2022/07/05 16:18:50;;;;;;;3.35;1.10;;;;;;;;;;5007803;28;20109;-78
2022/07/05 16:21:17;;;;;;;1.08;0.82;;;;;;;;;;5009633;28;20030;-79
2022/07/05 16:23:47;;;;;;;6.43;1.10;;;;;;;;;;5004840;28;20023;-77
2022/07/05 16:26:15;;;;;;;2.42;1.23;;;;;;;;;;5006769;28;20022;-78
2022/07/05 16:28:41;;;;;;;3.55;1.00;;;;;;;;;;5003399;28;20030;-78
2022/07/05 16:31:08;;;;;;;2.00;1.08;;;;;;;;;;5006826;28;20026;-79
2022/07/05 16:33:39;;;;;;;1.45;1.00;;;;;;;;;;5006028;28;20455;-79
2022/07/05 16:36:15;;;;;;;4.25;1.10;;;;;;;;;;5004693;28;20113;-80
2022/07/05 16:38:44;;;;;;;4.38;1.50;;;;;;;;;;5003623;28;20069;-79
2022/07/05 16:41:13;;;;;;;1.38;0.98;;;;;;;;;;5003502;28;20348;-79
2022/07/05 16:43:42;;;;;;;15.40;5.15;;;;;;;;;;5003088;28;20392;-79
2022/07/05 16:46:08;;;;;;;2.95;1.15;;;;;;;;;;5004116;28;20536;-78
2022/07/05 16:48:38;;;;;;;4.88;1.23;;;;;;;;;;5017463;28;20038;-79
2022/07/05 16:51:07;;;;;;;4.57;1.00;;;;;;;;;;5002320;28;20036;-79
2022/07/05 16:53:35;;;;;;;4.25;1.05;;;;;;;;;;5001503;28;20026;-79
2022/07/05 16:56:06;;;;;;;2.35;0.98;;;;;;;;;;4999668;28;20086;-78
2022/07/05 16:58:37;;;;;;;3.88;1.10;;;;;;;;;;5001366;28;20479;-79
2022/07/05 17:01:08;;;;;;;3.83;1.20;;;;;;;;;;5002139;28;20037;-79
2022/07/05 17:03:34;;;;;;;2.85;1.20;;;;;;;;;;5002020;28;20030;-78
2022/07/05 17:05:59;;;;;;;4.55;1.08;;;;;;;;;;5001411;28;20041;-79
2022/07/05 17:08:25;;;;;;;2.50;1.00;;;;;;;;;;5001858;28;20034;-78
2022/07/05 17:10:50;;;;;;;1.52;1.00;;;;;;;;;;5000566;28;20026;-78
2022/07/05 17:13:15;;;;;;;2.27;1.20;;;;;;;;;;5003281;28;20032;-78
2022/07/05 17:15:41;;;;;;;2.70;1.10;;;;;;;;;;5003031;28;20035;-78
2022/07/05 17:18:07;;;;;;;1.75;1.00;;;;;;;;;;5002930;28;20088;-79
2022/07/05 17:20:32;;;;;;;2.25;1.10;;;;;;;;;;5001826;28;20026;-78
2022/07/05 17:22:57;;;;;;;3.90;1.20;;;;;;;;;;5018646;28;20034;-78
2022/07/05 17:25:22;;;;;;;2.90;0.90;;;;;;;;;;5002749;28;20306;-79
2022/07/05 17:27:48;;;;;;;1.98;1.10;;;;;;;;;;5001846;28;20026;-78
2022/07/05 17:30:13;;;;;;;2.75;1.00;;;;;;;;;;5002213;28;20132;-79
2022/07/05 17:32:38;;;;;;;1.80;0.98;;;;;;;;;;5003575;28;20035;-79
2022/07/05 17:35:05;;;;;;;6.73;1.10;;;;;;;;;;5003181;28;20479;-79
2022/07/05 17:37:31;;;;;;;2.65;1.20;;;;;;;;;;5001889;28;20256;-78
2022/07/05 17:39:56;;;;;;;3.58;1.30;;;;;;;;;;5002269;28;20102;-79
2022/07/05 17:42:21;;;;;;;4.10;0.90;;;;;;;;;;5002646;28;20484;-80
2022/07/05 17:44:46;;;;;;;7.00;1.10;;;;;;;;;;5003194;28;20260;-78
2022/07/05 17:47:12;;;;;;;4.03;1.40;;;;;;;;;;5020279;28;20022;-79
2022/07/05 17:49:37;;;;;;;4.93;1.30;;;;;;;;;;5002421;28;20042;-79
2022/07/05 17:52:04;;;;;;;2.28;1.10;;;;;;;;;;5002897;28;20029;-79
2022/07/05 17:54:29;;;;;;;2.92;1.15;;;;;;;;;;5001969;28;20084;-79
2022/07/05 17:56:54;;;;;;;2.00;1.20;;;;;;;;;;5002547;28;20101;-79
2022/07/05 17:59:20;;;;;;;3.00;1.20;;;;;;;;;;5001082;28;20086;-79
2022/07/05 18:01:45;;;;;;;5.33;1.30;;;;;;;;;;5002146;28;20123;-78
2022/07/05 18:04:10;;;;;;;3.60;1.20;;;;;;;;;;5000218;28;20268;-78
2022/07/05 18:06:35;;;;;;;3.67;1.20;;;;;;;;;;4999889;28;20026;-77
2022/07/05 18:09:01;;;;;;;1.20;1.05;;;;;;;;;;5000003;28;20027;-79
2022/07/05 18:11:26;;;;;;;2.60;1.10;;;;;;;;;;5000508;28;20117;-79
2022/07/05 18:13:58;;;;;;;1.20;1.10;;;;;;;;;;5001153;28;20030;-80
2022/07/05 18:16:23;;;;;;;2.05;1.10;;;;;;;;;;5003622;28;20018;-78
2022/07/05 18:18:49;;;;;;;2.30;1.27;;;;;;;;;;5002086;28;20068;-78
2022/07/05 18:21:16;;;;;;;1.77;1.05;;;;;;;;;;5001391;28;20061;-79
2022/07/05 18:23:46;;;;;;;6.45;1.40;;;;;;;;;;5000426;28;20031;-80
2022/07/05 18:26:12;;;;;;;2.60;1.10;;;;;;;;;;5000836;28;20018;-80
2022/07/05 18:28:37;;;;;;;5.15;1.30;;;;;;;;;;5000720;28;20035;-79
2022/07/05 18:31:02;;;;;;;2.58;1.20;;;;;;;;;;5000514;28;20036;-79
2022/07/05 18:33:28;;;;;;;2.13;1.20;;;;;;;;;;5002877;28;20026;-79
2022/07/05 18:35:53;;;;;;;4.57;1.47;;;;;;;;;;5001002;28;20272;-78
2022/07/05 18:38:18;;;;;;;2.15;1.40;;;;;;;;;;5003850;28;20761;-79
2022/07/05 18:40:43;;;;;;;7.53;1.20;;;;;;;;;;5001628;28;20033;-79
2022/07/05 18:43:08;;;;;;;3.33;1.30;;;;;;;;;;5000379;28;20731;-78
2022/07/05 18:45:34;;;;;;;2.17;1.30;;;;;;;;;;4999245;28;20296;-80
2022/07/05 18:47:59;;;;;;;2.23;1.10;;;;;;;;;;4998338;28;20022;-77
2022/07/05 18:50:27;;;;;;;3.93;1.37;;;;;;;;;;4999441;28;20462;-79
2022/07/05 18:52:53;;;;;;;3.55;1.45;;;;;;;;;;4998669;28;20274;-78
2022/07/05 18:55:18;;;;;;;3.13;1.20;;;;;;;;;;4999379;28;20340;-78
2022/07/05 18:57:43;;;;;;;7.73;1.30;;;;;;;;;;4997786;28;20041;-79
2022/07/05 19:00:09;;;;;;;11.48;5.78;;;;;;;;;;4999336;28;20272;-78
2022/07/05 19:02:36;;;;;;;3.08;1.50;;;;;;;;;;5000682;28;20026;-77
2022/07/05 19:05:02;;;;;;;2.05;1.15;;;;;;;;;;4999279;28;20122;-79
2022/07/05 19:15:40;;;;;;;2.85;1.50;;;;;;;;;;4999582;28;20049;-78
2022/07/05 19:18:05;;;;;;;5.90;1.50;;;;;;;;;;4998283;28;20086;-80
2022/07/05 19:20:30;;;;;;;1.93;1.10;;;;;;;;;;4999306;28;20022;-78
2022/07/05 19:22:55;;;;;;;3.90;1.50;;;;;;;;;;5000923;28;20733;-79
2022/07/05 19:25:21;;;;;;;1.83;1.33;;;;;;;;;;4999953;28;20624;-79
2022/07/05 19:27:46;;;;;;;4.03;1.40;;;;;;;;;;5000040;28;20291;-79
2022/07/05 19:30:12;;;;;;;2.40;1.40;;;;;;;;;;5001100;28;20074;-79
2022/07/05 19:32:37;;;;;;;3.28;1.30;;;;;;;;;;5003016;28;20038;-79
2022/07/05 19:35:03;;;;;;;5.50;1.20;;;;;;;;;;5000794;28;20492;-78
2022/07/05 19:37:28;;;;;;;2.88;1.30;;;;;;;;;;5002125;28;20057;-79
2022/07/05 19:39:54;;;;;;;2.25;1.40;;;;;;;;;;5003502;28;20026;-78
2022/07/05 19:42:19;;;;;;;1.50;1.10;;;;;;;;;;5003296;28;20033;-78
2022/07/05 19:44:45;;;;;;;1.60;1.20;;;;;;;;;;5001480;28;20033;-78
2022/07/05 19:47:22;;;;;;;5.53;2.88;;;;;;;;;;5002647;28;20019;-79
2022/07/05 19:49:50;;;;;;;2.55;1.50;;;;;;;;;;5004068;28;20038;-78
2022/07/05 19:52:15;;;;;;;3.70;1.50;;;;;;;;;;5003808;28;20403;-79
2022/07/05 19:54:40;;;;;;;1.67;1.40;;;;;;;;;;5004461;28;20022;-79
2022/07/05 19:57:07;;;;;;;3.23;1.40;;;;;;;;;;5005239;28;20266;-80
2022/07/05 19:59:33;;;;;;;2.50;1.40;;;;;;;;;;5005493;28;20252;-79
2022/07/05 20:01:58;;;;;;;2.30;1.40;;;;;;;;;;5005124;28;20034;-79
2022/07/05 20:04:23;;;;;;;2.50;1.40;;;;;;;;;;5004417;28;20052;-79
2022/07/05 20:06:49;;;;;;;4.23;1.37;;;;;;;;;;5005559;28;20319;-79
2022/07/05 20:09:14;;;;;;;2.20;1.30;;;;;;;;;;5004243;28;20745;-80
2022/07/05 20:11:39;;;;;;;4.72;1.33;;;;;;;;;;5003532;28;20264;-80
2022/07/05 20:14:05;;;;;;;3.20;1.35;;;;;;;;;;5004027;28;20026;-79
2022/07/05 20:16:30;;;;;;;3.53;1.25;;;;;;;;;;5004899;28;20025;-79
2022/07/05 20:18:55;;;;;;;5.50;1.30;;;;;;;;;;5007346;28;20033;-79
2022/07/05 20:21:21;;;;;;;2.40;1.33;;;;;;;;;;5002261;28;20034;-79
2022/07/05 20:23:46;;;;;;;1.75;1.30;;;;;;;;;;5001699;28;20256;-79
2022/07/05 20:26:11;;;;;;;3.72;1.40;;;;;;;;;;5000586;28;20157;-78
2022/07/05 20:29:27;;;;;;;;;;;;;;;;;;;;;
2022/07/05 20:47:49;;;;;;;4.55;1.40;;;;;;;;;;4988061;28;20016;-77
2022/07/05 20:50:49;;;;;;;2.63;1.40;;;;;;;;;;5026215;28;20076;-79
2022/07/05 20:53:56;;;;;;;;;;;;;;;;;;;;;
2022/07/05 20:56:32;;;;;;;;;;;;;;;;;;;;;
2022/07/05 20:59:13;;;;;;;1.83;1.40;;;;;;;;;;5039967;28;20108;-78
2022/07/05 21:02:03;;;;;;;;;;;;;;;;;;;;;
2022/07/05 21:08:11;;;;;;;;;;;;;;;;;;;;;
2022/07/05 21:11:21;;;;;;;4.15;1.58;;;;;;;;;;5042259;28;20072;-78
2022/07/05 21:13:49;;;;;;;3.15;1.38;;;;;;;;;;4976090;29;20054;-77
2022/07/05 22:05:28;;;;;;;7.60;1.70;;;;;;;;;;3135324;22;20080;-77
2022/07/05 22:07:54;;;;;;;7.50;1.50;;;;;;;;;;5049121;28;20029;-77
2022/07/05 22:10:19;;;;;;;2.95;1.48;;;;;;;;;;5038173;28;20009;-77
2022/07/05 22:12:44;;;;;;;2.15;1.30;;;;;;;;;;5037894;28;20107;-77
2022/07/05 22:15:09;;;;;;;2.20;1.40;;;;;;;;;;5035405;28;20079;-77
2022/07/05 22:17:35;;;;;;;2.20;1.40;;;;;;;;;;5035525;28;20265;-78
2022/07/05 22:20:00;;;;;;;3.08;1.42;;;;;;;;;;5034464;28;20262;-77
2022/07/05 22:22:25;;;;;;;3.22;1.60;;;;;;;;;;5040469;28;20022;-77
2022/07/05 22:24:50;;;;;;;4.40;1.60;;;;;;;;;;5036759;28;20017;-78
2022/07/05 22:27:16;;;;;;;2.70;1.42;;;;;;;;;;5039029;28;20282;-77
2022/07/05 22:29:41;;;;;;;2.92;1.52;;;;;;;;;;5037772;28;20029;-78
2022/07/05 22:32:07;;;;;;;4.77;1.40;;;;;;;;;;5017799;28;20475;-77
2022/07/05 22:34:32;;;;;;;3.92;1.92;;;;;;;;;;5019153;28;20313;-77
2022/07/05 22:36:57;;;;;;;7.90;1.70;;;;;;;;;;5034139;28;20013;-77
2022/07/05 22:39:22;;;;;;;4.60;1.53;;;;;;;;;;5016285;28;20528;-77
2022/07/05 22:41:47;;;;;;;5.60;1.70;;;;;;;;;;5033984;28;20740;-77
2022/07/05 22:44:13;;;;;;;2.30;1.50;;;;;;;;;;5033975;28;20797;-77
2022/07/05 22:46:38;;;;;;;1.95;1.55;;;;;;;;;;5033319;28;20278;-77